createdAt,value
2022-09-14T00:01:14.317Z,15.73
2022-09-14T00:03:40.648Z,15.90
2022-09-14T00:06:09.381Z,15.59
2022-09-14T00:08:36.727Z,15.85
2022-09-14T00:11:06.230Z,15.27
2022-09-14T00:13:34.204Z,15.75
2022-09-14T00:16:12.157Z,16.17
2022-09-14T00:18:38.887Z,15.59
2022-09-14T00:21:08.284Z,15.97
2022-09-14T00:23:36.907Z,15.79
2022-09-14T00:26:05.419Z,15.43
2022-09-14T00:28:39.769Z,16.06
2022-09-14T00:31:07.723Z,15.41
2022-09-14T00:33:34.838Z,15.44
2022-09-14T00:36:24.344Z,15.97
2022-09-14T00:38:51.745Z,15.31
2022-09-14T00:41:21.917Z,16.00
2022-09-14T00:43:59.492Z,16.13
2022-09-14T00:46:28.643Z,15.94
2022-09-14T00:48:58.029Z,16.13
2022-09-14T00:51:25.789Z,15.81
2022-09-14T00:53:52.705Z,14.45
2022-09-14T00:56:19.741Z,15.79
2022-09-14T00:58:49.488Z,16.35
2022-09-14T01:01:16.771Z,16.35
2022-09-14T01:03:43.587Z,16.15
2022-09-14T01:06:29.303Z,16.34
2022-09-14T01:09:33.065Z,16.34
2022-09-14T01:12:14.497Z,16.41
2022-09-14T01:14:41.425Z,16.45
2022-09-14T01:17:42.230Z,16.43
2022-09-14T01:20:34.063Z,16.34
2022-09-14T01:23:46.202Z,16.41
2022-09-14T01:26:28.029Z,16.36
2022-09-14T01:29:02.104Z,16.32
2022-09-14T01:31:36.459Z,15.98
2022-09-14T01:34:16.038Z,16.46
2022-09-14T01:36:47.723Z,16.50
2022-09-14T01:39:16.528Z,16.48
2022-09-14T01:41:43.835Z,16.28
2022-09-14T01:44:21.538Z,15.52
2022-09-14T01:46:55.480Z,16.40
2022-09-14T01:49:37.190Z,16.37
2022-09-14T01:52:19.590Z,16.31
2022-09-14T01:54:53.036Z,16.11
2022-09-14T01:57:46.234Z,16.01
2022-09-14T02:00:16.434Z,16.45
2022-09-14T02:02:54.609Z,16.47
2022-09-14T02:05:42.633Z,16.47
2022-09-14T02:08:09.508Z,16.45
2022-09-14T02:10:36.666Z,16.46
2022-09-14T02:13:03.878Z,16.49
2022-09-14T02:15:30.728Z,15.75
2022-09-14T02:17:57.517Z,16.02
2022-09-14T02:20:33.300Z,16.17
2022-09-14T02:23:04.311Z,16.30
2022-09-14T02:25:33.447Z,16.21
2022-09-14T02:31:36.889Z,16.25
2022-09-14T02:34:51.351Z,16.20
2022-09-14T02:37:57.951Z,16.16
2022-09-14T02:40:39.494Z,16.22
2022-09-14T02:43:32.418Z,16.26
2022-09-14T02:46:29.724Z,16.24
2022-09-14T02:49:28.034Z,16.20
2022-09-14T02:52:07.697Z,16.24
2022-09-14T02:54:50.474Z,16.16
2022-09-14T02:57:17.634Z,16.24
2022-09-14T02:59:44.334Z,15.71
2022-09-14T03:02:11.602Z,15.78
2022-09-14T03:04:38.585Z,15.16
2022-09-14T03:07:06.668Z,15.51
2022-09-14T03:09:33.405Z,15.50
2022-09-14T03:12:00.165Z,15.30
2022-09-14T03:14:26.900Z,15.95
2022-09-14T03:16:55.458Z,15.94
2022-09-14T03:19:25.741Z,15.81
2022-09-14T03:21:57.136Z,15.87
2022-09-14T03:24:29.963Z,15.88
2022-09-14T03:27:00.182Z,15.57
2022-09-14T03:29:29.382Z,15.80
2022-09-14T03:31:57.369Z,15.81
2022-09-14T03:34:28.510Z,14.71
2022-09-14T03:36:58.970Z,15.85
2022-09-14T03:39:26.630Z,14.45
2022-09-14T03:41:53.298Z,14.40
2022-09-14T03:44:20.507Z,16.16
2022-09-14T03:46:51.105Z,16.19
2022-09-14T03:49:29.914Z,16.23
2022-09-14T03:51:59.883Z,16.12
2022-09-14T03:54:27.640Z,16.17
2022-09-14T03:56:57.900Z,16.24
2022-09-14T03:59:28.410Z,16.28
2022-09-14T04:01:57.608Z,16.09
2022-09-14T04:04:25.618Z,15.99
2022-09-14T04:06:55.087Z,16.24
2022-09-14T04:09:21.794Z,15.87
2022-09-14T04:11:48.399Z,14.45
2022-09-14T04:14:15.225Z,15.46
2022-09-14T04:16:42.003Z,16.12
2022-09-14T04:19:09.181Z,15.58
2022-09-14T04:21:35.781Z,15.83
2022-09-14T04:24:14.804Z,15.44
2022-09-14T04:26:45.417Z,15.72
2022-09-14T04:29:14.605Z,15.08
2022-09-14T04:31:41.625Z,15.39
2022-09-14T04:34:11.637Z,14.75
2022-09-14T04:36:38.252Z,15.55
2022-09-14T04:39:05.175Z,15.57
2022-09-14T04:41:32.790Z,15.44
2022-09-14T04:44:00.119Z,15.15
2022-09-14T04:46:30.368Z,15.87
2022-09-14T04:48:57.428Z,15.76
2022-09-14T04:51:26.903Z,15.63
2022-09-14T04:53:55.485Z,15.56
2022-09-14T04:56:23.656Z,15.54
2022-09-14T04:58:56.961Z,15.55
2022-09-14T05:01:26.080Z,15.15
2022-09-14T05:03:53.886Z,13.85
2022-09-14T05:06:23.558Z,14.42
2022-09-14T05:08:51.617Z,14.01
2022-09-14T05:11:24.464Z,11.90
2022-09-14T05:13:52.088Z,15.53
2022-09-14T05:16:20.410Z,15.63
2022-09-14T05:18:47.966Z,14.83
2022-09-14T05:21:17.502Z,15.39
2022-09-14T05:23:44.599Z,15.36
2022-09-14T05:26:12.849Z,15.60
2022-09-14T05:28:40.911Z,15.69
2022-09-14T05:31:11.285Z,15.43
2022-09-14T05:33:38.132Z,15.40
2022-09-14T05:36:06.830Z,15.32
2022-09-14T05:38:37.035Z,15.35
2022-09-14T05:41:08.450Z,15.36
2022-09-14T05:43:35.314Z,15.43
2022-09-14T05:46:07.192Z,15.59
2022-09-14T05:48:41.020Z,14.92
2022-09-14T05:51:24.756Z,15.47
2022-09-14T05:53:57.953Z,15.16
2022-09-14T05:56:27.281Z,15.48
2022-09-14T05:58:54.891Z,15.60
2022-09-14T06:01:24.271Z,14.90
2022-09-14T06:03:54.491Z,15.30
2022-09-14T06:06:21.831Z,15.70
2022-09-14T06:08:50.336Z,15.82
2022-09-14T06:11:19.553Z,15.10
2022-09-14T06:13:46.394Z,15.73
2022-09-14T06:16:17.509Z,15.58
2022-09-14T06:18:45.704Z,15.61
2022-09-14T06:21:14.107Z,15.56
2022-09-14T06:23:41.822Z,15.38
2022-09-14T06:26:09.063Z,15.22
2022-09-14T06:28:36.241Z,15.33
2022-09-14T06:31:04.044Z,15.55
2022-09-14T06:33:31.790Z,15.51
2022-09-14T06:36:07.612Z,15.78
2022-09-14T06:38:34.278Z,15.47
2022-09-14T06:41:03.550Z,15.84
2022-09-14T06:43:33.555Z,15.61
2022-09-14T06:46:01.828Z,15.94
2022-09-14T06:48:54.174Z,16.00
2022-09-14T06:51:23.464Z,15.98
2022-09-14T06:53:51.352Z,15.92
2022-09-14T06:56:18.559Z,15.88
2022-09-14T06:58:45.542Z,15.66
2022-09-14T07:01:16.049Z,15.68
2022-09-14T07:03:43.560Z,15.51
2022-09-14T07:06:12.882Z,14.69
2022-09-14T07:08:40.204Z,15.81
2022-09-14T07:11:08.260Z,15.56
2022-09-14T07:13:35.539Z,15.61
2022-09-14T07:16:02.338Z,14.90
2022-09-14T07:18:29.944Z,16.05
2022-09-14T07:20:56.510Z,14.36
2022-09-14T07:23:23.194Z,15.86
2022-09-14T07:25:59.944Z,15.25
2022-09-14T07:28:27.651Z,15.90
2022-09-14T07:30:58.778Z,15.80
2022-09-14T07:33:26.239Z,15.85
2022-09-14T07:35:53.074Z,16.13
2022-09-14T07:38:30.770Z,15.93
2022-09-14T07:41:07.616Z,16.04
2022-09-14T07:43:34.881Z,16.27
2022-09-14T07:46:05.923Z,15.23
2022-09-14T07:48:35.533Z,15.94
2022-09-14T07:51:08.179Z,16.23
2022-09-14T07:53:40.573Z,15.85
2022-09-14T07:56:08.606Z,15.09
2022-09-14T07:58:35.880Z,15.73
2022-09-14T08:01:08.221Z,16.03
2022-09-14T08:03:36.100Z,15.66
2022-09-14T08:06:04.814Z,15.56
2022-09-14T08:08:33.751Z,16.19
2022-09-14T08:11:11.726Z,16.22
2022-09-14T08:13:41.168Z,16.27
2022-09-14T08:16:08.639Z,16.05
2022-09-14T08:18:37.984Z,16.12
2022-09-14T08:21:15.950Z,16.09
2022-09-14T08:23:43.657Z,16.11
2022-09-14T08:26:22.603Z,16.17
2022-09-14T08:28:50.818Z,14.65
2022-09-14T08:31:23.159Z,15.24
2022-09-14T08:33:52.702Z,15.28
2022-09-14T08:36:20.865Z,15.14
2022-09-14T08:38:47.624Z,14.77
2022-09-14T08:41:44.813Z,14.48
2022-09-14T08:44:11.369Z,14.56
2022-09-14T08:47:35.155Z,14.45
2022-09-14T08:50:05.142Z,14.30
2022-09-14T08:52:36.348Z,14.13
2022-09-14T08:55:16.885Z,13.71
2022-09-14T08:58:03.513Z,14.39
2022-09-14T09:01:12.819Z,14.54
2022-09-14T09:04:17.355Z,15.12
2022-09-14T09:06:52.845Z,15.07
2022-09-14T09:09:25.116Z,15.20
2022-09-14T09:11:54.192Z,14.91
2022-09-14T09:14:58.002Z,15.31
2022-09-14T09:17:40.434Z,15.30
2022-09-14T09:20:15.333Z,15.04
2022-09-14T09:22:47.388Z,14.35
2022-09-14T09:25:23.480Z,14.86
2022-09-14T09:28:09.934Z,15.30
2022-09-14T09:30:38.627Z,15.05
2022-09-14T09:33:06.496Z,14.54
2022-09-14T09:36:01.508Z,14.88
2022-09-14T09:38:30.420Z,15.06
2022-09-14T09:41:01.349Z,15.44
2022-09-14T09:43:48.473Z,15.39
2022-09-14T09:46:15.046Z,15.21
2022-09-14T09:48:44.957Z,15.33
2022-09-14T09:51:17.464Z,15.29
2022-09-14T09:54:12.707Z,15.16
2022-09-14T09:56:49.809Z,14.90
2022-09-14T09:59:38.002Z,14.56
2022-09-14T10:02:34.539Z,15.28
2022-09-14T10:05:10.459Z,15.28
2022-09-14T10:07:49.121Z,14.22
2022-09-14T10:10:19.067Z,14.21
2022-09-14T10:12:56.860Z,14.80
2022-09-14T10:15:34.895Z,14.89
2022-09-14T10:18:10.946Z,15.23
2022-09-14T10:20:40.494Z,15.30
2022-09-14T10:23:19.485Z,15.44
2022-09-14T10:25:51.566Z,15.14
2022-09-14T10:28:33.337Z,14.64
2022-09-14T10:31:07.314Z,14.33
2022-09-14T10:33:35.147Z,15.15
2022-09-14T10:36:24.245Z,15.00
2022-09-14T10:39:12.801Z,14.75
2022-09-14T10:42:14.948Z,15.19
2022-09-14T10:44:50.674Z,15.20
2022-09-14T10:47:43.125Z,15.25
2022-09-14T10:50:35.646Z,15.12
2022-09-14T10:53:27.499Z,15.52
2022-09-14T10:56:17.895Z,15.05
2022-09-14T10:58:50.589Z,15.56
2022-09-14T11:01:17.222Z,15.44
2022-09-14T11:03:52.572Z,15.43
2022-09-14T11:06:46.991Z,15.06
2022-09-14T11:09:30.193Z,14.86
2022-09-14T11:12:14.561Z,15.08
2022-09-14T11:14:44.193Z,15.26
2022-09-14T11:17:58.290Z,14.96
2022-09-14T11:20:42.564Z,15.33
2022-09-14T11:23:30.630Z,15.46
2022-09-14T11:26:06.925Z,15.13
2022-09-14T11:28:40.945Z,15.40
2022-09-14T11:31:15.294Z,15.49
2022-09-14T11:34:11.065Z,15.60
2022-09-14T11:36:44.425Z,15.49
2022-09-14T11:39:24.663Z,15.68
2022-09-14T11:42:00.340Z,15.65
2022-09-14T11:44:33.499Z,14.95
2022-09-14T11:47:35.126Z,15.60
2022-09-14T11:50:15.582Z,15.40
2022-09-14T11:52:42.360Z,15.04
2022-09-14T11:55:24.216Z,15.09
2022-09-14T11:57:52.413Z,15.43
2022-09-14T12:00:25.082Z,15.78
2022-09-14T12:03:05.471Z,15.43
2022-09-14T12:05:33.812Z,15.74
2022-09-14T12:08:03.926Z,15.25
2022-09-14T12:10:30.911Z,15.93
2022-09-14T12:13:18.699Z,15.55
2022-09-14T12:15:46.135Z,15.93
2022-09-14T12:18:12.692Z,16.07
2022-09-14T12:21:06.060Z,16.13
2022-09-14T12:23:43.220Z,15.93
2022-09-14T12:26:18.933Z,16.23
2022-09-14T12:28:48.238Z,15.69
2022-09-14T12:31:43.956Z,15.72
2022-09-14T12:34:24.949Z,16.37
2022-09-14T12:36:51.825Z,16.27
2022-09-14T12:39:27.800Z,16.24
2022-09-14T12:41:54.619Z,16.49
2022-09-14T12:44:36.582Z,16.51
2022-09-14T12:47:25.247Z,16.61
2022-09-14T12:50:04.855Z,16.39
2022-09-14T12:52:58.975Z,16.15
2022-09-14T12:55:47.144Z,16.29
2022-09-14T12:58:25.977Z,16.17
2022-09-14T13:01:17.554Z,15.70
2022-09-14T13:03:51.227Z,15.88
2022-09-14T13:06:20.471Z,15.66
2022-09-14T13:08:50.026Z,15.52
2022-09-14T13:11:28.212Z,15.78
2022-09-14T13:13:56.054Z,14.96
2022-09-14T13:16:44.728Z,15.13
2022-09-14T13:19:37.901Z,15.01
2022-09-14T13:22:18.188Z,14.59
2022-09-14T13:24:46.446Z,14.95
2022-09-14T13:27:26.604Z,15.05
2022-09-14T13:30:11.566Z,14.98
2022-09-14T13:32:43.719Z,14.80
2022-09-14T13:35:31.414Z,14.92
2022-09-14T13:38:08.528Z,15.15
2022-09-14T13:40:35.883Z,15.14
2022-09-14T13:43:02.837Z,15.21
2022-09-14T13:45:30.094Z,15.53
2022-09-14T13:47:56.828Z,15.54
2022-09-14T13:50:24.568Z,15.79
2022-09-14T13:53:07.793Z,14.95
2022-09-14T13:55:34.434Z,15.72
2022-09-14T13:58:24.425Z,15.60
2022-09-14T14:01:00.609Z,15.40
2022-09-14T14:03:46.631Z,15.50
2022-09-14T14:06:27.280Z,15.57
2022-09-14T14:09:10.859Z,14.99
2022-09-14T14:11:39.940Z,15.00
2022-09-14T14:14:17.722Z,13.57
2022-09-14T14:17:18.558Z,14.61
2022-09-14T14:19:45.328Z,14.76
2022-09-14T14:22:16.214Z,14.76
2022-09-14T14:25:11.818Z,14.99
2022-09-14T14:27:31.457Z,14.77
2022-09-14T14:30:00.136Z,13.89
2022-09-14T14:32:28.511Z,13.80
2022-09-14T14:34:55.808Z,13.86
2022-09-14T14:37:22.475Z,14.29
2022-09-14T14:39:49.837Z,14.49
2022-09-14T14:42:17.526Z,14.45
2022-09-14T14:44:44.951Z,14.61
2022-09-14T14:47:15.627Z,14.19
2022-09-14T14:49:42.284Z,14.66
2022-09-14T14:52:10.069Z,14.45
2022-09-14T14:54:36.721Z,14.71
2022-09-14T14:57:03.595Z,14.76
2022-09-14T14:59:30.418Z,13.56
2022-09-14T15:01:57.794Z,14.40
2022-09-14T15:04:24.721Z,14.49
2022-09-14T15:06:51.749Z,14.93
2022-09-14T15:09:27.900Z,14.18
2022-09-14T15:11:55.038Z,14.97
2022-09-14T15:14:26.706Z,14.72
2022-09-14T15:16:54.849Z,14.80
2022-09-14T15:19:21.964Z,14.86
2022-09-14T15:21:50.067Z,14.74
2022-09-14T15:24:18.602Z,14.58
2022-09-14T15:26:45.319Z,13.32
2022-09-14T15:29:13.142Z,14.86
2022-09-14T15:31:40.682Z,15.05
2022-09-14T15:42:29.093Z,13.70
2022-09-14T15:44:56.213Z,13.15
2022-09-14T15:47:23.065Z,12.23
2022-09-14T15:49:53.508Z,11.89
2022-09-14T15:55:01.075Z,13.42
2022-09-14T16:02:51.814Z,12.22
2022-09-14T16:05:18.735Z,13.16
2022-09-14T16:07:45.759Z,13.19
2022-09-14T16:10:12.966Z,12.87
2022-09-14T16:12:39.901Z,12.81
2022-09-14T16:15:07.274Z,12.74
2022-09-14T16:17:34.221Z,12.85
2022-09-14T16:20:01.246Z,12.21
2022-09-14T16:22:28.115Z,12.41
2022-09-14T16:24:54.843Z,13.02
2022-09-14T16:27:22.834Z,13.01
2022-09-14T16:29:49.619Z,12.16
2022-09-14T16:32:16.385Z,12.22
2022-09-14T16:34:43.048Z,12.56
2022-09-14T16:37:09.861Z,12.72
2022-09-14T16:39:36.516Z,12.36
2022-09-14T16:42:03.378Z,13.02
2022-09-14T16:44:30.264Z,12.82
2022-09-14T16:46:58.332Z,12.53
2022-09-14T16:49:27.759Z,13.15
2022-09-14T16:51:55.563Z,13.34
2022-09-14T16:54:24.492Z,13.31
2022-09-14T16:56:51.895Z,13.46
2022-09-14T16:59:19.357Z,12.91
2022-09-14T17:01:52.121Z,12.80
2022-09-14T17:04:21.594Z,12.54
2022-09-14T17:06:49.418Z,12.97
2022-09-14T17:09:22.019Z,12.53
2022-09-14T17:11:49.474Z,12.46
2022-09-14T17:14:19.660Z,13.10
2022-09-14T17:16:46.889Z,13.15
2022-09-14T17:19:14.601Z,12.23
2022-09-14T17:21:43.153Z,12.61
2022-09-14T17:24:10.131Z,13.19
2022-09-14T17:26:37.260Z,13.22
2022-09-14T17:29:05.036Z,12.77
2022-09-14T17:31:34.600Z,11.13
2022-09-14T17:34:02.995Z,13.03
2022-09-14T17:36:29.867Z,12.80
2022-09-14T17:38:58.628Z,13.08
2022-09-14T17:41:26.937Z,13.04
2022-09-14T17:43:56.412Z,12.94
2022-09-14T17:46:23.854Z,12.68
2022-09-14T17:48:51.842Z,12.58
2022-09-14T17:51:23.961Z,13.25
2022-09-14T17:53:53.197Z,12.60
2022-09-14T17:56:23.012Z,12.92
2022-09-14T17:59:03.394Z,13.06
2022-09-14T18:01:33.506Z,13.02
2022-09-14T18:04:06.427Z,13.33
2022-09-14T18:06:35.534Z,13.34
2022-09-14T18:09:09.696Z,11.94
2022-09-14T18:11:37.376Z,13.03
2022-09-14T18:14:05.075Z,12.96
2022-09-14T18:16:32.654Z,13.02
2022-09-14T18:18:59.409Z,12.83
2022-09-14T18:21:26.581Z,12.47
2022-09-14T18:23:54.828Z,12.59
2022-09-14T18:26:23.308Z,13.03
2022-09-14T18:28:51.095Z,13.47
2022-09-14T18:31:19.088Z,12.77
2022-09-14T18:33:57.556Z,13.44
2022-09-14T18:36:25.749Z,12.94
2022-09-14T18:38:54.862Z,13.08
2022-09-14T18:41:21.478Z,13.39
2022-09-14T18:43:50.386Z,12.95
2022-09-14T18:46:18.301Z,13.34
2022-09-14T18:48:45.039Z,12.83
2022-09-14T18:51:13.632Z,12.57
2022-09-14T18:53:41.282Z,12.40
2022-09-14T18:56:10.820Z,12.43
2022-09-14T18:58:40.897Z,12.78
2022-09-14T19:01:10.911Z,12.50
2022-09-14T19:03:40.710Z,12.73
2022-09-14T19:06:12.103Z,13.04
2022-09-14T19:08:39.552Z,13.10
2022-09-14T19:11:29.303Z,13.26
2022-09-14T19:14:04.150Z,13.08
2022-09-14T19:16:31.220Z,13.25
2022-09-14T19:18:58.507Z,13.53
2022-09-14T19:21:30.998Z,13.63
2022-09-14T19:24:03.880Z,13.65
2022-09-14T19:26:33.797Z,13.56
2022-09-14T19:29:02.562Z,12.01
2022-09-14T19:31:29.868Z,12.18
2022-09-14T19:34:01.335Z,13.34
2022-09-14T19:36:30.606Z,13.59
2022-09-14T19:38:59.535Z,13.41
2022-09-14T19:41:26.239Z,12.84
2022-09-14T19:43:52.910Z,13.37
2022-09-14T19:46:20.975Z,13.24
2022-09-14T19:48:47.662Z,13.67
2022-09-14T19:51:17.604Z,13.23
2022-09-14T19:53:48.016Z,12.97
2022-09-14T19:56:17.301Z,11.77
2022-09-14T19:58:49.631Z,12.96
2022-09-14T20:01:19.507Z,13.14
2022-09-14T20:03:48.108Z,12.50
2022-09-14T20:06:17.441Z,11.95
2022-09-14T20:08:44.136Z,13.05
2022-09-14T20:11:16.614Z,13.33
2022-09-14T20:13:46.165Z,13.15
2022-09-14T20:16:18.349Z,12.86
2022-09-14T20:18:46.307Z,12.97
2022-09-14T20:21:15.571Z,12.64
2022-09-14T20:24:04.531Z,11.91
2022-09-14T20:26:30.754Z,12.12
2022-09-14T20:28:58.970Z,12.27
2022-09-14T20:31:26.104Z,12.12
2022-09-14T20:33:53.018Z,12.10
2022-09-14T20:36:21.796Z,12.65
2022-09-14T20:38:50.901Z,12.58
2022-09-14T20:41:18.554Z,12.33
2022-09-14T20:43:45.789Z,12.31
2022-09-14T20:46:15.268Z,11.95
2022-09-14T20:48:41.939Z,12.67
2022-09-14T20:51:09.023Z,12.46
2022-09-14T20:53:37.826Z,12.96
2022-09-14T20:56:13.828Z,13.12
2022-09-14T20:58:41.340Z,13.19
2022-09-14T21:01:19.250Z,13.07
2022-09-14T21:03:49.027Z,13.36
2022-09-14T21:06:24.952Z,13.20
2022-09-14T21:08:52.015Z,13.13
2022-09-14T21:11:20.962Z,13.49
2022-09-14T21:13:48.389Z,13.53
2022-09-14T21:16:18.417Z,13.50
2022-09-14T21:18:46.582Z,13.24
2022-09-14T21:21:19.205Z,13.51
2022-09-14T21:23:47.037Z,13.27
2022-09-14T21:26:14.258Z,11.59
2022-09-14T21:28:41.738Z,13.11
2022-09-14T21:31:08.441Z,13.53
2022-09-14T21:33:37.263Z,13.55
2022-09-14T21:36:19.002Z,13.59
2022-09-14T21:38:55.016Z,13.22
2022-09-14T21:41:23.720Z,12.94
2022-09-14T21:43:51.519Z,13.58
2022-09-14T21:46:19.460Z,13.20
2022-09-14T21:48:46.105Z,13.47
2022-09-14T21:51:21.257Z,13.63
2022-09-14T21:53:53.764Z,13.63
2022-09-14T21:56:22.078Z,13.64
2022-09-14T21:58:54.318Z,13.11
2022-09-14T22:01:21.744Z,13.36
2022-09-14T22:03:50.231Z,13.50
2022-09-14T22:06:18.135Z,11.92
2022-09-14T22:08:45.209Z,12.78
2022-09-14T22:11:23.026Z,13.18
2022-09-14T22:13:54.166Z,13.15
2022-09-14T22:16:22.422Z,13.61
2022-09-14T22:18:52.545Z,13.65
2022-09-14T22:21:19.935Z,13.38
2022-09-14T22:23:55.147Z,13.12
2022-09-14T22:26:23.128Z,13.81
2022-09-14T22:28:51.596Z,13.83
2022-09-14T22:31:20.521Z,13.19
2022-09-14T22:33:47.785Z,13.39
2022-09-14T22:36:14.830Z,13.48
2022-09-14T22:38:41.527Z,12.89
2022-09-14T22:41:17.404Z,13.50
2022-09-14T22:43:45.300Z,13.62
2022-09-14T22:46:12.824Z,13.84
2022-09-14T22:48:40.119Z,13.48
2022-09-14T22:51:08.785Z,13.78
2022-09-14T22:53:36.003Z,13.72
2022-09-14T22:56:10.471Z,13.90
2022-09-14T22:58:37.617Z,13.32
2022-09-14T23:01:10.036Z,12.90
2022-09-14T23:03:37.406Z,13.72
2022-09-14T23:06:04.704Z,13.70
2022-09-14T23:08:32.400Z,13.49
2022-09-14T23:11:06.597Z,13.21
2022-09-14T23:13:37.980Z,13.31
2022-09-14T23:16:20.679Z,12.87
2022-09-14T23:18:55.633Z,13.40
2022-09-14T23:21:22.756Z,13.23
2022-09-14T23:23:54.639Z,12.82
2022-09-14T23:26:22.536Z,13.50
2022-09-14T23:28:58.156Z,13.05
2022-09-14T23:31:26.118Z,13.27
2022-09-14T23:33:54.545Z,13.17
2022-09-14T23:36:22.227Z,12.68
2022-09-14T23:38:49.335Z,12.34
2022-09-14T23:41:16.999Z,12.32
2022-09-14T23:43:44.104Z,11.83
2022-09-14T23:46:11.280Z,11.89
2022-09-14T23:48:38.425Z,11.97
2022-09-14T23:51:07.175Z,11.81
2022-09-14T23:53:34.773Z,11.82
2022-09-14T23:56:02.028Z,12.07
2022-09-14T23:58:28.753Z,11.92
